Time;durP1;ratioP1;P1;durP2;ratioP2;P2;SDS_P1;SDS_P2;PMS_P1;PMS_P2;Temp;Humidity;BMP_temperature;BMP_pressure;BME280_temperature;BME280_humidity;BME280_pressure;Samples;Min_cycle;Max_cycle;Signal;HPM_P1;HPM_P2
2022/06/11 00:01:48;;;;;;;1.35;0.65;;;;;;;;;;5109100;28;20028;-80
2022/06/11 00:04:27;;;;;;;0.35;0.35;;;;;;;;;;5101537;28;20054;-80
2022/06/11 00:06:56;;;;;;;0.85;0.77;;;;;;;;;;5070169;28;20115;-83
2022/06/11 00:09:22;;;;;;;0.15;0.13;;;;;;;;;;5107133;28;20019;-81
2022/06/11 00:11:49;;;;;;;1.13;0.85;;;;;;;;;;5089603;28;20081;-81
2022/06/11 00:14:15;;;;;;;0.15;0.10;;;;;;;;;;5069711;28;20154;-81
2022/06/11 00:16:41;;;;;;;0.38;0.38;;;;;;;;;;5093742;28;20110;-81
2022/06/11 00:19:09;;;;;;;0.20;0.20;;;;;;;;;;5111173;27;20032;-81
2022/06/11 00:21:37;;;;;;;0.40;0.40;;;;;;;;;;5115468;28;20058;-80
2022/06/11 00:24:05;;;;;;;3.50;0.70;;;;;;;;;;5096504;28;20110;-81
2022/06/11 00:26:31;;;;;;;0.28;0.20;;;;;;;;;;5112997;28;20348;-81
2022/06/11 00:28:57;;;;;;;1.38;0.75;;;;;;;;;;5114460;28;20098;-81
2022/06/11 00:31:23;;;;;;;0.57;0.50;;;;;;;;;;5115193;28;20025;-80
2022/06/11 00:33:48;;;;;;;0.52;0.25;;;;;;;;;;5097044;28;20027;-78
2022/06/11 00:36:18;;;;;;;0.30;0.30;;;;;;;;;;5113084;28;20039;-80
2022/06/11 00:38:46;;;;;;;0.20;0.20;;;;;;;;;;5080043;28;20027;-79
2022/06/11 00:41:15;;;;;;;0.30;0.30;;;;;;;;;;5113133;28;20034;-80
2022/06/11 00:43:42;;;;;;;0.30;0.30;;;;;;;;;;5095590;28;20024;-80
2022/06/11 00:46:41;;;;;;;1.77;0.40;;;;;;;;;;5093196;28;20015;-80
2022/06/11 00:49:17;;;;;;;0.35;0.35;;;;;;;;;;5114918;28;20023;-81
2022/06/11 00:51:42;;;;;;;0.40;0.32;;;;;;;;;;5086737;28;20031;-81
2022/06/11 00:54:17;;;;;;;0.60;0.32;;;;;;;;;;5084487;28;20483;-80
2022/06/11 00:56:45;;;;;;;0.68;0.68;;;;;;;;;;5077133;28;20020;-80
2022/06/11 00:59:17;;;;;;;1.42;1.08;;;;;;;;;;5111375;28;20027;-80
2022/06/11 01:01:43;;;;;;;0.10;0.10;;;;;;;;;;5095592;28;20028;-80
2022/06/11 01:04:36;;;;;;;0.73;0.47;;;;;;;;;;5114677;28;20032;-80
2022/06/11 01:07:32;;;;;;;0.77;0.43;;;;;;;;;;5114747;28;20031;-80
2022/06/11 01:10:13;;;;;;;0.13;0.13;;;;;;;;;;5085360;28;20149;-79
2022/06/11 01:12:45;;;;;;;0.30;0.27;;;;;;;;;;5113027;28;20483;-80
2022/06/11 01:15:25;;;;;;;0.73;0.55;;;;;;;;;;5114554;28;20283;-78
2022/06/11 01:18:18;;;;;;;2.65;0.40;;;;;;;;;;5095881;28;20118;-80
2022/06/11 01:21:22;;;;;;;0.77;0.77;;;;;;;;;;5091848;28;20023;-78
2022/06/11 01:24:18;;;;;;;0.35;0.30;;;;;;;;;;5012061;28;20026;-80
2022/06/11 01:27:10;;;;;;;0.20;0.20;;;;;;;;;;5106846;28;20038;-79
2022/06/11 01:29:52;;;;;;;0.52;0.47;;;;;;;;;;5090073;28;20337;-81
2022/06/11 01:32:40;;;;;;;0.43;0.43;;;;;;;;;;5096523;28;20336;-79
2022/06/11 01:35:12;;;;;;;0.38;0.35;;;;;;;;;;5115485;28;20459;-80
2022/06/11 01:38:03;;;;;;;0.20;0.17;;;;;;;;;;5100099;28;20031;-80
2022/06/11 01:40:39;;;;;;;0.63;0.30;;;;;;;;;;5101096;28;20024;-80
2022/06/11 01:43:25;;;;;;;0.25;0.20;;;;;;;;;;5100676;28;20033;-81
2022/06/11 01:45:51;;;;;;;0.63;0.60;;;;;;;;;;5100496;28;20533;-78
2022/06/11 01:48:23;;;;;;;0.90;0.70;;;;;;;;;;5117296;28;20051;-76
2022/06/11 01:51:11;;;;;;;0.55;0.40;;;;;;;;;;5099930;28;20019;-80
2022/06/11 01:54:13;;;;;;;1.00;0.45;;;;;;;;;;5117805;28;20063;-80
2022/06/11 01:56:38;;;;;;;0.52;0.45;;;;;;;;;;5113743;28;20039;-80
2022/06/11 01:59:18;;;;;;;7.78;0.75;;;;;;;;;;5112567;28;20387;-78
2022/06/11 02:02:04;;;;;;;0.65;0.40;;;;;;;;;;5107406;28;20059;-79
2022/06/11 02:04:38;;;;;;;1.67;0.70;;;;;;;;;;5117276;28;20079;-80
2022/06/11 02:07:19;;;;;;;1.20;0.55;;;;;;;;;;5117271;28;20023;-80
2022/06/11 02:10:12;;;;;;;1.77;0.70;;;;;;;;;;5101874;28;20035;-80
2022/06/11 02:12:58;;;;;;;0.47;0.40;;;;;;;;;;5093474;28;20357;-80
2022/06/11 02:15:39;;;;;;;1.65;0.65;;;;;;;;;;5099422;28;20032;-80
2022/06/11 02:18:16;;;;;;;0.30;0.30;;;;;;;;;;5097703;28;20048;-81
2022/06/11 02:21:03;;;;;;;1.42;0.95;;;;;;;;;;5099821;28;20077;-80
2022/06/11 02:23:42;;;;;;;0.63;0.57;;;;;;;;;;5099866;28;20050;-80
2022/06/11 02:26:13;;;;;;;1.27;0.35;;;;;;;;;;5099772;28;20035;-80
2022/06/11 02:28:42;;;;;;;0.45;0.45;;;;;;;;;;5117594;28;20031;-82
2022/06/11 02:31:11;;;;;;;0.43;0.43;;;;;;;;;;5120940;28;20028;-79
2022/06/11 02:33:37;;;;;;;0.30;0.30;;;;;;;;;;5103869;28;20042;-83
2022/06/11 02:36:17;;;;;;;0.22;0.22;;;;;;;;;;5105739;28;20355;-82
2022/06/11 02:38:43;;;;;;;2.15;1.23;;;;;;;;;;5122257;28;20028;-83
2022/06/11 02:41:16;;;;;;;1.35;0.60;;;;;;;;;;5123445;28;20360;-82
2022/06/11 02:43:41;;;;;;;1.50;1.23;;;;;;;;;;5120036;28;20019;-81
2022/06/11 02:48:52;;;;;;;1.05;0.95;;;;;;;;;;5099191;28;20042;-80
2022/06/11 02:51:19;;;;;;;0.22;0.20;;;;;;;;;;5101420;28;20027;-81
2022/06/11 02:53:45;;;;;;;0.40;0.40;;;;;;;;;;5118664;28;20024;-81
2022/06/11 02:56:11;;;;;;;0.80;0.40;;;;;;;;;;5117636;28;20043;-80
2022/06/11 02:58:36;;;;;;;1.20;1.02;;;;;;;;;;5097153;28;20050;-80
2022/06/11 03:01:02;;;;;;;0.50;0.50;;;;;;;;;;5117230;28;20442;-81
2022/06/11 03:03:27;;;;;;;0.68;0.63;;;;;;;;;;5099137;28;20080;-80
2022/06/11 03:05:52;;;;;;;1.10;0.40;;;;;;;;;;5117033;28;20036;-81
2022/06/11 03:08:18;;;;;;;0.63;0.43;;;;;;;;;;5098055;28;20019;-82
2022/06/11 03:10:43;;;;;;;0.20;0.17;;;;;;;;;;5098887;28;20110;-79
2022/06/11 03:13:09;;;;;;;2.25;0.88;;;;;;;;;;5095536;28;20461;-81
2022/06/11 03:15:34;;;;;;;0.28;0.28;;;;;;;;;;5108686;28;20015;-80
2022/06/11 03:18:02;;;;;;;1.10;0.50;;;;;;;;;;5097117;28;21597;-76
2022/06/11 03:20:29;;;;;;;0.75;0.75;;;;;;;;;;5115648;28;20031;-76
2022/06/11 03:22:55;;;;;;;0.45;0.40;;;;;;;;;;5098784;28;20035;-76
2022/06/11 03:25:21;;;;;;;1.23;0.55;;;;;;;;;;5117056;28;20100;-76
2022/06/11 03:27:49;;;;;;;0.65;0.50;;;;;;;;;;5115936;28;20019;-76
2022/06/11 03:30:16;;;;;;;0.80;0.22;;;;;;;;;;5115638;28;20111;-75
2022/06/11 03:32:41;;;;;;;0.60;0.60;;;;;;;;;;5098791;28;20459;-76
2022/06/11 03:35:08;;;;;;;0.55;0.38;;;;;;;;;;5116483;28;20027;-76
2022/06/11 03:37:34;;;;;;;0.57;0.55;;;;;;;;;;5098534;28;20027;-76
2022/06/11 03:39:59;;;;;;;0.20;0.17;;;;;;;;;;5115331;28;20035;-78
2022/06/11 03:42:25;;;;;;;0.47;0.45;;;;;;;;;;5077441;28;20084;-78
2022/06/11 03:44:50;;;;;;;0.47;0.43;;;;;;;;;;5061855;28;20042;-78
2022/06/11 03:47:16;;;;;;;0.30;0.30;;;;;;;;;;5112432;28;20508;-78
2022/06/11 03:49:41;;;;;;;0.20;0.20;;;;;;;;;;5116121;28;20096;-78
2022/06/11 03:52:07;;;;;;;0.68;0.68;;;;;;;;;;5097952;28;20114;-78
2022/06/11 03:54:32;;;;;;;0.17;0.17;;;;;;;;;;5116133;28;20024;-78
2022/06/11 03:56:58;;;;;;;0.03;0.03;;;;;;;;;;5114262;28;20425;-78
2022/06/11 03:59:24;;;;;;;0.25;0.25;;;;;;;;;;5097899;28;20028;-78
2022/06/11 04:01:50;;;;;;;1.15;1.00;;;;;;;;;;5113196;28;20051;-78
2022/06/11 04:04:19;;;;;;;0.20;0.15;;;;;;;;;;5114155;28;20034;-78
2022/06/11 04:06:50;;;;;;;1.45;0.63;;;;;;;;;;5096626;28;20027;-78
2022/06/11 04:09:29;;;;;;;2.10;0.70;;;;;;;;;;5116641;28;20026;-78
2022/06/11 04:11:55;;;;;;;0.50;0.32;;;;;;;;;;5097534;28;20051;-78
2022/06/11 04:14:20;;;;;;;0.50;0.47;;;;;;;;;;5115783;28;20426;-78
2022/06/11 04:16:51;;;;;;;0.40;0.40;;;;;;;;;;5114792;28;20058;-78
2022/06/11 04:19:30;;;;;;;3.60;0.98;;;;;;;;;;5115621;28;20022;-78
2022/06/11 04:21:59;;;;;;;0.20;0.20;;;;;;;;;;5097751;28;20030;-76
2022/06/11 04:24:27;;;;;;;0.63;0.60;;;;;;;;;;5115531;28;20019;-76
2022/06/11 04:26:55;;;;;;;0.38;0.38;;;;;;;;;;5095460;28;20023;-75
2022/06/11 04:29:24;;;;;;;0.55;0.55;;;;;;;;;;5094913;28;20459;-75
2022/06/11 04:31:52;;;;;;;0.30;0.30;;;;;;;;;;5115863;28;20433;-76
2022/06/11 04:34:18;;;;;;;1.45;0.90;;;;;;;;;;5097754;28;20442;-76
2022/06/11 04:36:48;;;;;;;0.28;0.20;;;;;;;;;;5111024;28;20103;-76
2022/06/11 04:39:15;;;;;;;1.08;0.63;;;;;;;;;;5105425;28;20031;-77
2022/06/11 04:41:46;;;;;;;0.98;0.75;;;;;;;;;;5115142;28;20023;-77
2022/06/11 04:44:11;;;;;;;0.40;0.30;;;;;;;;;;5115466;28;20058;-77
2022/06/11 04:46:39;;;;;;;0.20;0.20;;;;;;;;;;5096705;28;20433;-77
2022/06/11 04:49:05;;;;;;;0.10;0.10;;;;;;;;;;5097878;28;20016;-77
2022/06/11 04:51:30;;;;;;;1.15;0.63;;;;;;;;;;5115727;28;20433;-77
2022/06/11 04:53:56;;;;;;;1.33;0.82;;;;;;;;;;5115187;28;20023;-77
2022/06/11 04:56:24;;;;;;;2.35;0.95;;;;;;;;;;5113161;28;20448;-77
2022/06/11 04:58:50;;;;;;;0.80;0.55;;;;;;;;;;5114891;28;20050;-76
2022/06/11 05:01:17;;;;;;;1.20;0.40;;;;;;;;;;5097031;28;20092;-76
2022/06/11 05:03:45;;;;;;;0.32;0.32;;;;;;;;;;5097269;28;20034;-76
2022/06/11 05:06:14;;;;;;;0.20;0.20;;;;;;;;;;5096062;28;20027;-78
2022/06/11 05:08:43;;;;;;;0.85;0.80;;;;;;;;;;5097351;28;20035;-77
2022/06/11 05:11:08;;;;;;;0.40;0.35;;;;;;;;;;5103879;28;20051;-77
2022/06/11 05:13:34;;;;;;;0.50;0.50;;;;;;;;;;5114960;28;20066;-76
2022/06/11 05:16:02;;;;;;;0.20;0.20;;;;;;;;;;5113979;28;20027;-76
2022/06/11 05:18:28;;;;;;;0.38;0.38;;;;;;;;;;5097135;28;20364;-76
2022/06/11 05:20:54;;;;;;;5.28;0.85;;;;;;;;;;5096840;28;20401;-76
2022/06/11 05:23:20;;;;;;;0.40;0.40;;;;;;;;;;5114703;28;20070;-76
2022/06/11 05:25:46;;;;;;;2.70;0.47;;;;;;;;;;5113932;28;20023;-76
2022/06/11 05:28:16;;;;;;;1.48;1.38;;;;;;;;;;5079244;28;20024;-76
2022/06/11 05:30:46;;;;;;;0.17;0.17;;;;;;;;;;5114706;28;20027;-76
2022/06/11 05:33:12;;;;;;;0.98;0.75;;;;;;;;;;5114504;28;20099;-76
2022/06/11 05:35:38;;;;;;;0.45;0.43;;;;;;;;;;5113993;28;20031;-76
2022/06/11 05:38:09;;;;;;;0.20;0.20;;;;;;;;;;5096042;28;20024;-76
2022/06/11 05:40:38;;;;;;;0.68;0.60;;;;;;;;;;5107402;28;20031;-76
2022/06/11 05:43:04;;;;;;;0.77;0.73;;;;;;;;;;5096901;28;20030;-76
2022/06/11 05:45:36;;;;;;;0.85;0.60;;;;;;;;;;5113707;28;20031;-76
2022/06/11 05:48:04;;;;;;;0.20;0.20;;;;;;;;;;5096684;28;20146;-77
2022/06/11 05:50:34;;;;;;;2.08;1.08;;;;;;;;;;5096693;28;20049;-77
2022/06/11 05:53:01;;;;;;;0.98;0.65;;;;;;;;;;5095294;28;20031;-76
2022/06/11 05:55:30;;;;;;;1.10;0.82;;;;;;;;;;5096388;28;20024;-77
2022/06/11 05:58:00;;;;;;;0.73;0.60;;;;;;;;;;5096643;28;20019;-77
2022/06/11 06:00:28;;;;;;;0.25;0.20;;;;;;;;;;5114412;28;20055;-77
2022/06/11 06:02:53;;;;;;;0.30;0.30;;;;;;;;;;5114434;28;20026;-77
2022/06/11 06:05:23;;;;;;;0.63;0.43;;;;;;;;;;5076245;28;20119;-77
2022/06/11 06:07:48;;;;;;;0.28;0.28;;;;;;;;;;5096873;28;20135;-77
2022/06/11 06:10:13;;;;;;;0.95;0.70;;;;;;;;;;5102072;28;20104;-77
2022/06/11 06:12:39;;;;;;;0.08;0.08;;;;;;;;;;5097291;28;20042;-77
2022/06/11 06:15:12;;;;;;;0.85;0.60;;;;;;;;;;5095898;28;20072;-78
2022/06/11 06:17:38;;;;;;;0.20;0.20;;;;;;;;;;5114335;28;20023;-77
2022/06/11 06:20:05;;;;;;;1.10;0.38;;;;;;;;;;5106759;28;20028;-78
2022/06/11 06:22:31;;;;;;;0.57;0.10;;;;;;;;;;5098473;28;20039;-77
2022/06/11 06:24:56;;;;;;;0.50;0.50;;;;;;;;;;5117750;28;20118;-77
2022/06/11 06:27:21;;;;;;;0.55;0.30;;;;;;;;;;5117459;28;20034;-77
2022/06/11 06:29:47;;;;;;;0.70;0.70;;;;;;;;;;5100056;28;20020;-77
2022/06/11 06:32:13;;;;;;;0.65;0.50;;;;;;;;;;5116828;28;20023;-77
2022/06/11 06:34:38;;;;;;;0.40;0.28;;;;;;;;;;5098214;28;20027;-77
2022/06/11 06:37:03;;;;;;;0.40;0.38;;;;;;;;;;5116797;28;20472;-76
2022/06/11 06:39:32;;;;;;;0.57;0.50;;;;;;;;;;5097719;28;20073;-78
2022/06/11 06:41:57;;;;;;;0.43;0.30;;;;;;;;;;5114280;28;20376;-77
2022/06/11 06:44:22;;;;;;;0.50;0.50;;;;;;;;;;5100795;28;20023;-76
2022/06/11 06:46:48;;;;;;;0.32;0.30;;;;;;;;;;5098782;28;20114;-77
2022/06/11 06:49:13;;;;;;;0.03;0.03;;;;;;;;;;5096512;28;20077;-77
2022/06/11 06:51:38;;;;;;;0.35;0.35;;;;;;;;;;5116625;28;20031;-77
2022/06/11 06:54:04;;;;;;;0.55;0.35;;;;;;;;;;5099540;28;20099;-77
2022/06/11 06:56:33;;;;;;;0.15;0.15;;;;;;;;;;5117403;28;20062;-77
2022/06/11 06:59:00;;;;;;;1.33;0.60;;;;;;;;;;5115720;28;20024;-77
2022/06/11 07:01:28;;;;;;;5.38;0.73;;;;;;;;;;5104456;28;20059;-76
2022/06/11 07:03:55;;;;;;;0.28;0.28;;;;;;;;;;5117200;28;20022;-77
2022/06/11 07:06:21;;;;;;;0.10;0.10;;;;;;;;;;5117208;28;20467;-79
2022/06/11 07:08:49;;;;;;;0.30;0.30;;;;;;;;;;5099365;28;20412;-76
2022/06/11 07:11:14;;;;;;;0.28;0.28;;;;;;;;;;5116499;28;20023;-76
2022/06/11 07:13:42;;;;;;;0.17;0.17;;;;;;;;;;5098953;28;20036;-77
2022/06/11 07:16:07;;;;;;;0.88;0.70;;;;;;;;;;5116904;28;20028;-77
2022/06/11 07:18:39;;;;;;;0.10;0.10;;;;;;;;;;5117234;28;20359;-78
2022/06/11 07:21:07;;;;;;;0.55;0.38;;;;;;;;;;5116849;28;20402;-77
2022/06/11 07:23:36;;;;;;;5.57;1.50;;;;;;;;;;5117028;28;20035;-77
2022/06/11 07:26:09;;;;;;;1.77;0.47;;;;;;;;;;5117402;28;20024;-76
2022/06/11 07:28:37;;;;;;;0.43;0.43;;;;;;;;;;5098203;28;20439;-76
2022/06/11 07:31:03;;;;;;;1.20;0.57;;;;;;;;;;5116108;28;20368;-76
2022/06/11 07:33:29;;;;;;;0.40;0.13;;;;;;;;;;5116116;28;20153;-77
2022/06/11 07:35:54;;;;;;;0.00;0.00;;;;;;;;;;5082350;28;20027;-77
2022/06/11 07:38:21;;;;;;;0.85;0.85;;;;;;;;;;5117022;28;20031;-77
2022/06/11 07:40:46;;;;;;;0.47;0.47;;;;;;;;;;5116135;28;20088;-77
2022/06/11 07:43:14;;;;;;;0.40;0.40;;;;;;;;;;5087606;28;20361;-77
2022/06/11 07:45:41;;;;;;;0.60;0.40;;;;;;;;;;5112402;28;20539;-78
2022/06/11 07:48:08;;;;;;;1.25;0.77;;;;;;;;;;5097420;28;20024;-78
2022/06/11 07:50:40;;;;;;;2.08;0.77;;;;;;;;;;5096633;28;20036;-78
2022/06/11 07:53:07;;;;;;;0.52;0.52;;;;;;;;;;5116301;28;20455;-77
2022/06/11 07:55:34;;;;;;;0.20;0.20;;;;;;;;;;5116363;28;20039;-78
2022/06/11 07:58:00;;;;;;;0.55;0.55;;;;;;;;;;5098309;28;20039;-77
2022/06/11 08:00:30;;;;;;;0.32;0.30;;;;;;;;;;5115336;28;20023;-77
2022/06/11 08:02:55;;;;;;;0.40;0.30;;;;;;;;;;5098213;28;20019;-77
2022/06/11 08:05:21;;;;;;;0.25;0.25;;;;;;;;;;5097681;28;20015;-77
2022/06/11 08:07:48;;;;;;;0.50;0.50;;;;;;;;;;5103312;28;20326;-78
2022/06/11 08:10:16;;;;;;;0.43;0.43;;;;;;;;;;5098162;28;20035;-76
2022/06/11 08:12:42;;;;;;;0.75;0.30;;;;;;;;;;5097927;28;20035;-76
2022/06/11 08:15:11;;;;;;;0.35;0.35;;;;;;;;;;5115622;28;20032;-76
2022/06/11 08:17:36;;;;;;;0.57;0.32;;;;;;;;;;5096823;28;20109;-76
2022/06/11 08:20:09;;;;;;;1.13;0.50;;;;;;;;;;5115005;28;20031;-77
2022/06/11 08:22:37;;;;;;;0.32;0.32;;;;;;;;;;5115622;28;20425;-77
2022/06/11 08:25:05;;;;;;;0.40;0.40;;;;;;;;;;5097755;28;20032;-77
2022/06/11 08:27:31;;;;;;;0.85;0.50;;;;;;;;;;5114530;28;20432;-76
2022/06/11 08:29:56;;;;;;;0.55;0.55;;;;;;;;;;5115485;28;20027;-77
2022/06/11 08:32:24;;;;;;;1.05;0.52;;;;;;;;;;5115365;28;20015;-77
2022/06/11 08:34:50;;;;;;;0.63;0.20;;;;;;;;;;5101457;28;20039;-77
2022/06/11 08:37:16;;;;;;;0.65;0.60;;;;;;;;;;5102827;28;20032;-77
2022/06/11 08:39:42;;;;;;;0.43;0.40;;;;;;;;;;5111525;28;20039;-77
2022/06/11 08:42:35;;;;;;;0.25;0.25;;;;;;;;;;5115343;28;20019;-76
2022/06/11 08:45:25;;;;;;;1.35;1.00;;;;;;;;;;5096925;28;20035;-76
2022/06/11 08:47:52;;;;;;;0.65;0.52;;;;;;;;;;5095325;28;20027;-76
2022/06/11 08:50:32;;;;;;;1.08;0.85;;;;;;;;;;5077107;28;20026;-76
2022/06/11 08:52:58;;;;;;;1.77;0.77;;;;;;;;;;5114824;28;20046;-76
2022/06/11 08:55:30;;;;;;;1.80;1.02;;;;;;;;;;5076621;28;20028;-76
2022/06/11 08:57:59;;;;;;;;;;;;;;;;;;5112786;28;20066;-76
2022/06/11 09:01:04;;;;;;;0.70;0.68;;;;;;;;;;5113864;28;20077;-75
2022/06/11 09:03:35;;;;;;;0.80;0.55;;;;;;;;;;5094631;28;20107;-75
2022/06/11 09:06:22;;;;;;;2.15;0.80;;;;;;;;;;5113221;28;20042;-77
2022/06/11 09:09:38;;;;;;;1.15;0.70;;;;;;;;;;5114561;28;20027;-76
2022/06/11 09:12:26;;;;;;;0.25;0.25;;;;;;;;;;5077816;28;20054;-76
2022/06/11 09:15:03;;;;;;;0.93;0.68;;;;;;;;;;5111345;28;20089;-76
2022/06/11 09:17:45;;;;;;;0.73;0.43;;;;;;;;;;5111551;28;20114;-76
2022/06/11 09:20:24;;;;;;;0.57;0.50;;;;;;;;;;5114590;28;20062;-75
2022/06/11 09:22:59;;;;;;;1.23;0.95;;;;;;;;;;5092245;28;20094;-75
2022/06/11 09:25:30;;;;;;;2.40;0.95;;;;;;;;;;5104264;28;20031;-78
2022/06/11 09:28:01;;;;;;;0.30;0.30;;;;;;;;;;5104970;28;20530;-76
2022/06/11 09:30:37;;;;;;;0.40;0.40;;;;;;;;;;5086909;28;20024;-77
2022/06/11 09:33:05;;;;;;;0.85;0.75;;;;;;;;;;5092709;28;20441;-76
2022/06/11 09:36:13;;;;;;;0.88;0.40;;;;;;;;;;5092081;28;20032;-76
2022/06/11 09:39:17;;;;;;;0.25;0.25;;;;;;;;;;5084601;28;20078;-76
2022/06/11 09:41:46;;;;;;;0.40;0.40;;;;;;;;;;5017002;28;20037;-77
2022/06/11 09:44:36;;;;;;;0.40;0.40;;;;;;;;;;5105867;28;20114;-77
2022/06/11 09:47:07;;;;;;;4.80;0.82;;;;;;;;;;5092745;28;20102;-77
2022/06/11 09:49:56;;;;;;;0.68;0.68;;;;;;;;;;5094471;28;20028;-76
2022/06/11 09:52:51;;;;;;;0.82;0.60;;;;;;;;;;5088259;28;20144;-76
2022/06/11 09:55:33;;;;;;;2.88;1.15;;;;;;;;;;5083955;28;20031;-75
2022/06/11 09:58:11;;;;;;;1.35;0.90;;;;;;;;;;5106088;27;20023;-75
2022/06/11 10:01:07;;;;;;;0.80;0.80;;;;;;;;;;5077584;28;20039;-75
2022/06/11 10:03:43;;;;;;;1.45;0.95;;;;;;;;;;5069863;27;20456;-76
2022/06/11 10:06:24;;;;;;;1.35;0.98;;;;;;;;;;5091374;28;20433;-78
2022/06/11 10:08:58;;;;;;;1.80;0.82;;;;;;;;;;5087874;28;20082;-76
2022/06/11 10:11:30;;;;;;;1.33;1.23;;;;;;;;;;5095884;28;20513;-75
2022/06/11 10:16:48;;;;;;;0.82;0.82;;;;;;;;;;5114404;28;20091;-76
2022/06/11 10:19:34;;;;;;;0.65;0.65;;;;;;;;;;5094533;28;20052;-76
2022/06/11 10:22:33;;;;;;;1.77;0.80;;;;;;;;;;5096149;28;20308;-77
2022/06/11 10:25:13;;;;;;;8.02;5.53;;;;;;;;;;5026563;28;20044;-75
2022/06/11 10:27:42;;;;;;;16.67;10.00;;;;;;;;;;5105346;28;20043;-75
2022/06/11 10:30:16;;;;;;;3.97;1.98;;;;;;;;;;5077185;28;20028;-75
2022/06/11 10:32:43;;;;;;;3.63;1.85;;;;;;;;;;5100940;28;20040;-75
2022/06/11 10:35:11;;;;;;;1.63;1.30;;;;;;;;;;5058781;28;20403;-76
2022/06/11 10:37:46;;;;;;;1.23;1.13;;;;;;;;;;5100645;28;20880;-75
2022/06/11 10:40:33;;;;;;;2.25;0.50;;;;;;;;;;5112977;28;20039;-77
2022/06/11 10:43:14;;;;;;;2.28;1.45;;;;;;;;;;5095594;28;20023;-76
2022/06/11 10:45:39;;;;;;;1.80;1.08;;;;;;;;;;5094588;28;20043;-76
2022/06/11 10:48:22;;;;;;;3.03;1.42;;;;;;;;;;5079606;28;20106;-75
2022/06/11 10:50:53;;;;;;;1.27;1.00;;;;;;;;;;5080263;28;20027;-77
2022/06/11 10:53:29;;;;;;;2.47;1.33;;;;;;;;;;5092348;28;20028;-77
2022/06/11 10:55:59;;;;;;;0.63;0.63;;;;;;;;;;5094788;28;20019;-76
2022/06/11 10:58:35;;;;;;;1.55;1.27;;;;;;;;;;5077858;28;20019;-76
2022/06/11 11:01:21;;;;;;;0.65;0.60;;;;;;;;;;5093811;28;20061;-77
2022/06/11 11:03:51;;;;;;;2.10;0.82;;;;;;;;;;5106933;28;20107;-74
2022/06/11 11:06:37;;;;;;;0.85;0.65;;;;;;;;;;5109372;28;20027;-77
2022/06/11 11:09:06;;;;;;;2.33;0.40;;;;;;;;;;5076454;28;20067;-75
2022/06/11 11:11:43;;;;;;;0.80;0.50;;;;;;;;;;5107447;28;20078;-76
2022/06/11 11:14:26;;;;;;;0.73;0.68;;;;;;;;;;5098124;28;20080;-80
2022/06/11 11:16:53;;;;;;;0.32;0.32;;;;;;;;;;5094796;28;20110;-76
2022/06/11 11:19:24;;;;;;;0.82;0.68;;;;;;;;;;5090519;28;20368;-75
2022/06/11 11:21:54;;;;;;;1.42;0.63;;;;;;;;;;5091260;28;20115;-75
2022/06/11 11:24:25;;;;;;;0.25;0.22;;;;;;;;;;5073264;28;20090;-75
2022/06/11 11:26:56;;;;;;;0.85;0.68;;;;;;;;;;5088122;28;20353;-76
2022/06/11 11:29:33;;;;;;;0.43;0.30;;;;;;;;;;5090760;28;20069;-76
2022/06/11 11:32:23;;;;;;;1.85;0.50;;;;;;;;;;5078142;28;20032;-78
2022/06/11 11:34:49;;;;;;;1.00;0.52;;;;;;;;;;5110702;28;20110;-77
2022/06/11 11:37:16;;;;;;;1.10;0.70;;;;;;;;;;5112870;28;20102;-75
2022/06/11 11:40:14;;;;;;;7.10;1.10;;;;;;;;;;5090210;28;20568;-78
2022/06/11 11:42:42;;;;;;;1.42;0.95;;;;;;;;;;5087479;28;20032;-77
2022/06/11 11:45:23;;;;;;;1.10;0.93;;;;;;;;;;5097165;28;20024;-79
2022/06/11 11:47:54;;;;;;;0.65;0.47;;;;;;;;;;5089650;28;20019;-76
2022/06/11 11:50:34;;;;;;;0.65;0.40;;;;;;;;;;5099828;28;20045;-82
2022/06/11 11:53:26;;;;;;;0.90;0.60;;;;;;;;;;5082374;28;20840;-77
2022/06/11 11:56:06;;;;;;;0.80;0.25;;;;;;;;;;5093589;28;20448;-79
2022/06/11 11:58:40;;;;;;;0.47;0.30;;;;;;;;;;5089827;28;20028;-81
2022/06/11 12:01:13;;;;;;;0.52;0.52;;;;;;;;;;5090043;28;20106;-80
2022/06/11 12:03:38;;;;;;;0.50;0.50;;;;;;;;;;5089301;28;20101;-84
2022/06/11 12:06:09;;;;;;;0.65;0.65;;;;;;;;;;5092562;28;20024;-83
2022/06/11 12:08:46;;;;;;;0.30;0.30;;;;;;;;;;5068600;28;20055;-80
2022/06/11 12:11:23;;;;;;;4.22;1.08;;;;;;;;;;5071891;28;20039;-81
2022/06/11 12:13:51;;;;;;;0.52;0.52;;;;;;;;;;5101165;28;20023;-82
2022/06/11 12:16:39;;;;;;;0.98;0.73;;;;;;;;;;5104984;28;20028;-81
2022/06/11 12:19:16;;;;;;;1.25;1.15;;;;;;;;;;5113378;28;20484;-81
2022/06/11 12:21:43;;;;;;;1.63;1.02;;;;;;;;;;5108596;28;20055;-81
2022/06/11 12:24:18;;;;;;;0.63;0.55;;;;;;;;;;5077944;28;20461;-81
2022/06/11 12:26:47;;;;;;;0.60;0.60;;;;;;;;;;5094044;28;20031;-79
2022/06/11 12:29:26;;;;;;;0.65;0.40;;;;;;;;;;5084078;28;20047;-81
2022/06/11 12:31:53;;;;;;;3.65;2.08;;;;;;;;;;5092545;28;20102;-80
2022/06/11 12:34:22;;;;;;;3.75;2.60;;;;;;;;;;5096858;28;20050;-79
2022/06/11 12:37:01;;;;;;;1.10;1.00;;;;;;;;;;5091308;28;20020;-80
2022/06/11 12:39:29;;;;;;;1.15;0.98;;;;;;;;;;5090188;28;20110;-79
2022/06/11 12:41:54;;;;;;;1.77;1.23;;;;;;;;;;5092034;28;20114;-79
2022/06/11 12:44:38;;;;;;;2.53;1.40;;;;;;;;;;5100373;28;20095;-80
2022/06/11 12:47:22;;;;;;;0.50;0.50;;;;;;;;;;5109358;28;20070;-79
2022/06/11 12:50:21;;;;;;;0.28;0.28;;;;;;;;;;5105834;28;20023;-80
2022/06/11 12:53:01;;;;;;;0.45;0.45;;;;;;;;;;5113317;28;20498;-79
2022/06/11 12:55:41;;;;;;;0.85;0.82;;;;;;;;;;5079346;28;20539;-80
2022/06/11 12:58:25;;;;;;;1.95;0.50;;;;;;;;;;5075397;28;20119;-82
2022/06/11 13:00:53;;;;;;;1.55;1.00;;;;;;;;;;5091442;28;20365;-79
2022/06/11 13:03:49;;;;;;;0.50;0.50;;;;;;;;;;5114603;28;20042;-81
2022/06/11 13:06:23;;;;;;;0.35;0.35;;;;;;;;;;5113878;28;20092;-80
2022/06/11 13:09:01;;;;;;;1.23;0.50;;;;;;;;;;5114618;28;20428;-80
2022/06/11 13:11:58;;;;;;;0.68;0.45;;;;;;;;;;5114330;28;20027;-82
2022/06/11 13:14:29;;;;;;;0.70;0.60;;;;;;;;;;5096641;28;20357;-81
2022/06/11 13:17:28;;;;;;;0.30;0.30;;;;;;;;;;5112909;28;20019;-79
2022/06/11 13:20:21;;;;;;;0.50;0.50;;;;;;;;;;5090745;28;20043;-82
2022/06/11 13:22:57;;;;;;;2.40;0.98;;;;;;;;;;5102108;28;20073;-79
2022/06/11 13:25:34;;;;;;;0.30;0.30;;;;;;;;;;5086486;28;20043;-80
2022/06/11 13:28:37;;;;;;;0.60;0.60;;;;;;;;;;5094567;28;20027;-80
2022/06/11 13:31:11;;;;;;;0.50;0.50;;;;;;;;;;5098931;28;20041;-80
2022/06/11 13:34:12;;;;;;;0.80;0.60;;;;;;;;;;5111290;28;20031;-82
2022/06/11 13:36:37;;;;;;;0.30;0.30;;;;;;;;;;5027932;28;20034;-84
2022/06/11 13:39:12;;;;;;;1.97;0.53;;;;;;;;;;5086172;28;20044;-85
2022/06/11 13:41:52;;;;;;;0.25;0.22;;;;;;;;;;5103543;28;20333;-81
2022/06/11 13:44:41;;;;;;;0.38;0.35;;;;;;;;;;5108504;28;20019;-81
2022/06/11 13:47:47;;;;;;;0.88;0.30;;;;;;;;;;5094864;28;20039;-84
2022/06/11 13:51:13;;;;;;;0.20;0.20;;;;;;;;;;5102897;28;20023;-84
2022/06/11 13:56:57;;;;;;;0.40;0.30;;;;;;;;;;5018675;28;20037;-82
2022/06/11 13:59:37;;;;;;;1.15;1.00;;;;;;;;;;5028599;28;20073;-84
2022/06/11 14:02:28;;;;;;;0.45;0.45;;;;;;;;;;5025710;28;20042;-79
2022/06/11 14:05:01;;;;;;;0.75;0.55;;;;;;;;;;5022770;28;20038;-81
2022/06/11 14:07:30;;;;;;;0.15;0.15;;;;;;;;;;5010994;28;20029;-81
2022/06/11 14:10:20;;;;;;;1.42;0.38;;;;;;;;;;5026706;28;20026;-80
2022/06/11 14:12:50;;;;;;;0.20;0.20;;;;;;;;;;5022577;28;20060;-85
2022/06/11 14:15:34;;;;;;;0.10;0.10;;;;;;;;;;5021893;28;20037;-81
2022/06/11 14:18:31;;;;;;;3.17;0.57;;;;;;;;;;5011865;28;20045;-78
2022/06/11 14:21:06;;;;;;;1.00;0.40;;;;;;;;;;4999607;28;20060;-78
2022/06/11 14:23:32;;;;;;;0.55;0.40;;;;;;;;;;5005378;28;20456;-79
2022/06/11 14:26:01;;;;;;;0.55;0.52;;;;;;;;;;5102108;28;20024;-79
2022/06/11 14:28:27;;;;;;;2.25;1.05;;;;;;;;;;5095771;28;20065;-80
2022/06/11 14:31:01;;;;;;;0.55;0.50;;;;;;;;;;5113458;28;20016;-80
2022/06/11 14:33:40;;;;;;;0.55;0.25;;;;;;;;;;5113126;28;20027;-80
2022/06/11 14:36:26;;;;;;;0.40;0.32;;;;;;;;;;5112788;28;20057;-79
2022/06/11 14:38:58;;;;;;;0.30;0.30;;;;;;;;;;5096086;28;20031;-79
2022/06/11 14:41:29;;;;;;;0.43;0.35;;;;;;;;;;5059343;28;20036;-76
2022/06/11 14:43:57;;;;;;;0.13;0.13;;;;;;;;;;5108567;28;20079;-76
2022/06/11 14:46:36;;;;;;;0.35;0.32;;;;;;;;;;5110615;28;20035;-79
2022/06/11 14:49:12;;;;;;;2.17;0.85;;;;;;;;;;5116917;28;20015;-79
2022/06/11 14:51:40;;;;;;;0.40;0.40;;;;;;;;;;5099001;28;20019;-78
2022/06/11 14:54:12;;;;;;;0.68;0.28;;;;;;;;;;5081821;28;20028;-77
2022/06/11 14:56:52;;;;;;;0.10;0.10;;;;;;;;;;5098983;28;20019;-77
2022/06/11 14:59:17;;;;;;;0.20;0.20;;;;;;;;;;5114995;28;20063;-77
2022/06/11 15:02:09;;;;;;;0.00;0.00;;;;;;;;;;5098801;28;20550;-77
2022/06/11 15:05:05;;;;;;;0.27;0.20;;;;;;;;;;5062900;28;20036;-76
2022/06/11 15:07:33;;;;;;;0.10;0.10;;;;;;;;;;5116510;28;20027;-77
2022/06/11 15:11:00;;;;;;;0.57;0.55;;;;;;;;;;5116570;28;20027;-77
2022/06/11 15:13:40;;;;;;;0.03;0.03;;;;;;;;;;5032945;28;20537;-78
2022/06/11 15:16:18;;;;;;;0.55;0.55;;;;;;;;;;5033692;28;20094;-77
2022/06/11 15:18:49;;;;;;;0.30;0.20;;;;;;;;;;5033444;28;20060;-77
2022/06/11 15:21:22;;;;;;;0.68;0.28;;;;;;;;;;5017737;28;20029;-77
2022/06/11 15:23:49;;;;;;;1.65;0.52;;;;;;;;;;5033588;28;20037;-77
2022/06/11 15:26:20;;;;;;;0.00;0.00;;;;;;;;;;5033667;28;20033;-77
2022/06/11 15:29:04;;;;;;;0.13;0.13;;;;;;;;;;5016624;28;20025;-77
2022/06/11 15:31:30;;;;;;;0.25;0.25;;;;;;;;;;5033566;28;20176;-77